sensor_id;sensor_type;location;lat;lon;timestamp;P1;durP1;ratioP1;P2;durP2;ratioP2
9310;SDS011;4694;52.464;13.480;2023-08-20T00:01:36;22.40;;;19.55;;
9310;SDS011;4694;52.464;13.480;2023-08-20T00:04:03;20.10;;;17.90;;
9310;SDS011;4694;52.464;13.480;2023-08-20T00:06:31;20.25;;;17.70;;
9310;SDS011;4694;52.464;13.480;2023-08-20T00:08:58;19.60;;;17.70;;
9310;SDS011;4694;52.464;13.480;2023-08-20T00:11:26;21.45;;;18.95;;
9310;SDS011;4694;52.464;13.480;2023-08-20T00:13:53;19.90;;;17.92;;
9310;SDS011;4694;52.464;13.480;2023-08-20T00:16:20;20.77;;;18.55;;
9310;SDS011;4694;52.464;13.480;2023-08-20T00:18:48;22.20;;;19.80;;
9310;SDS011;4694;52.464;13.480;2023-08-20T00:21:15;21.92;;;19.75;;
9310;SDS011;4694;52.464;13.480;2023-08-20T00:23:42;19.17;;;17.35;;
9310;SDS011;4694;52.464;13.480;2023-08-20T00:26:10;27.17;;;18.17;;
9310;SDS011;4694;52.464;13.480;2023-08-20T00:28:38;22.40;;;20.10;;
9310;SDS011;4694;52.464;13.480;2023-08-20T00:31:05;19.35;;;17.38;;
9310;SDS011;4694;52.464;13.480;2023-08-20T00:33:32;21.02;;;18.90;;
9310;SDS011;4694;52.464;13.480;2023-08-20T00:35:59;21.98;;;17.85;;
9310;SDS011;4694;52.464;13.480;2023-08-20T00:38:26;22.45;;;18.20;;
9310;SDS011;4694;52.464;13.480;2023-08-20T00:40:53;20.02;;;18.02;;
9310;SDS011;4694;52.464;13.480;2023-08-20T00:43:20;20.90;;;18.63;;
9310;SDS011;4694;52.464;13.480;2023-08-20T00:45:49;18.75;;;16.92;;
9310;SDS011;4694;52.464;13.480;2023-08-20T00:48:17;19.98;;;18.00;;
9310;SDS011;4694;52.464;13.480;2023-08-20T00:50:45;21.33;;;19.13;;
9310;SDS011;4694;52.464;13.480;2023-08-20T00:53:12;21.00;;;18.70;;
9310;SDS011;4694;52.464;13.480;2023-08-20T00:55:40;21.13;;;18.73;;
9310;SDS011;4694;52.464;13.480;2023-08-20T00:58:08;19.30;;;17.27;;
9310;SDS011;4694;52.464;13.480;2023-08-20T01:00:35;19.88;;;17.77;;
9310;SDS011;4694;52.464;13.480;2023-08-20T01:03:04;20.85;;;18.83;;
9310;SDS011;4694;52.464;13.480;2023-08-20T01:05:33;19.48;;;17.48;;
9310;SDS011;4694;52.464;13.480;2023-08-20T01:08:04;20.33;;;18.23;;
9310;SDS011;4694;52.464;13.480;2023-08-20T01:10:38;20.25;;;18.15;;
9310;SDS011;4694;52.464;13.480;2023-08-20T01:13:06;20.00;;;18.05;;
9310;SDS011;4694;52.464;13.480;2023-08-20T01:15:34;19.73;;;17.48;;
9310;SDS011;4694;52.464;13.480;2023-08-20T01:18:01;19.88;;;17.77;;
9310;SDS011;4694;52.464;13.480;2023-08-20T01:20:32;20.00;;;17.88;;
9310;SDS011;4694;52.464;13.480;2023-08-20T01:23:07;18.17;;;16.27;;
9310;SDS011;4694;52.464;13.480;2023-08-20T01:25:43;18.48;;;16.35;;
9310;SDS011;4694;52.464;13.480;2023-08-20T01:28:22;20.00;;;16.65;;
9310;SDS011;4694;52.464;13.480;2023-08-20T01:30:49;19.38;;;16.80;;
9310;SDS011;4694;52.464;13.480;2023-08-20T01:33:17;18.98;;;16.95;;
9310;SDS011;4694;52.464;13.480;2023-08-20T01:35:45;19.00;;;16.30;;
9310;SDS011;4694;52.464;13.480;2023-08-20T01:38:12;19.65;;;16.27;;
9310;SDS011;4694;52.464;13.480;2023-08-20T01:40:39;17.23;;;15.40;;
9310;SDS011;4694;52.464;13.480;2023-08-20T01:43:06;19.58;;;16.80;;
9310;SDS011;4694;52.464;13.480;2023-08-20T01:45:35;18.63;;;16.65;;
9310;SDS011;4694;52.464;13.480;2023-08-20T01:48:02;15.90;;;14.32;;
9310;SDS011;4694;52.464;13.480;2023-08-20T01:50:29;18.65;;;16.63;;
9310;SDS011;4694;52.464;13.480;2023-08-20T01:52:57;16.02;;;14.27;;
9310;SDS011;4694;52.464;13.480;2023-08-20T01:55:24;29.75;;;16.08;;
9310;SDS011;4694;52.464;13.480;2023-08-20T01:57:51;18.63;;;15.95;;
9310;SDS011;4694;52.464;13.480;2023-08-20T02:00:18;17.23;;;15.40;;
9310;SDS011;4694;52.464;13.480;2023-08-20T02:02:46;17.95;;;16.05;;
9310;SDS011;4694;52.464;13.480;2023-08-20T02:05:13;20.80;;;15.30;;
9310;SDS011;4694;52.464;13.480;2023-08-20T02:07:40;18.77;;;15.05;;
9310;SDS011;4694;52.464;13.480;2023-08-20T02:10:08;18.63;;;16.65;;
9310;SDS011;4694;52.464;13.480;2023-08-20T02:12:35;18.20;;;16.38;;
9310;SDS011;4694;52.464;13.480;2023-08-20T02:15:02;18.08;;;15.80;;
9310;SDS011;4694;52.464;13.480;2023-08-20T02:17:29;16.38;;;14.02;;
9310;SDS011;4694;52.464;13.480;2023-08-20T02:19:58;18.70;;;16.08;;
9310;SDS011;4694;52.464;13.480;2023-08-20T02:22:25;17.20;;;15.43;;
9310;SDS011;4694;52.464;13.480;2023-08-20T02:24:54;16.50;;;14.70;;
9310;SDS011;4694;52.464;13.480;2023-08-20T02:27:21;18.75;;;16.85;;
9310;SDS011;4694;52.464;13.480;2023-08-20T02:29:48;20.10;;;16.52;;
9310;SDS011;4694;52.464;13.480;2023-08-20T02:32:16;19.20;;;15.90;;
9310;SDS011;4694;52.464;13.480;2023-08-20T02:34:44;17.75;;;15.55;;
9310;SDS011;4694;52.464;13.480;2023-08-20T02:37:12;16.85;;;14.40;;
9310;SDS011;4694;52.464;13.480;2023-08-20T02:39:39;17.58;;;14.48;;
9310;SDS011;4694;52.464;13.480;2023-08-20T02:42:06;18.33;;;14.35;;
9310;SDS011;4694;52.464;13.480;2023-08-20T02:44:33;18.60;;;15.30;;
9310;SDS011;4694;52.464;13.480;2023-08-20T02:47:00;18.02;;;15.13;;
9310;SDS011;4694;52.464;13.480;2023-08-20T02:49:27;19.55;;;15.43;;
9310;SDS011;4694;52.464;13.480;2023-08-20T02:51:54;19.10;;;15.13;;
9310;SDS011;4694;52.464;13.480;2023-08-20T02:54:23;18.42;;;15.20;;
9310;SDS011;4694;52.464;13.480;2023-08-20T02:56:51;15.23;;;13.63;;
9310;SDS011;4694;52.464;13.480;2023-08-20T02:59:18;17.73;;;15.27;;
9310;SDS011;4694;52.464;13.480;2023-08-20T03:01:45;20.00;;;15.10;;
9310;SDS011;4694;52.464;13.480;2023-08-20T03:04:12;16.73;;;15.02;;
9310;SDS011;4694;52.464;13.480;2023-08-20T03:06:39;18.00;;;15.50;;
9310;SDS011;4694;52.464;13.480;2023-08-20T03:09:06;17.48;;;15.30;;
9310;SDS011;4694;52.464;13.480;2023-08-20T03:11:35;17.10;;;15.30;;
9310;SDS011;4694;52.464;13.480;2023-08-20T03:14:02;17.13;;;15.27;;
9310;SDS011;4694;52.464;13.480;2023-08-20T03:16:29;18.10;;;15.85;;
9310;SDS011;4694;52.464;13.480;2023-08-20T03:18:56;16.60;;;14.77;;
9310;SDS011;4694;52.464;13.480;2023-08-20T03:21:23;16.70;;;14.90;;
9310;SDS011;4694;52.464;13.480;2023-08-20T03:23:50;15.07;;;13.45;;
9310;SDS011;4694;52.464;13.480;2023-08-20T03:26:17;17.55;;;15.63;;
9310;SDS011;4694;52.464;13.480;2023-08-20T03:28:46;15.90;;;14.13;;
9310;SDS011;4694;52.464;13.480;2023-08-20T03:31:13;20.02;;;15.18;;
9310;SDS011;4694;52.464;13.480;2023-08-20T03:33:40;15.70;;;13.50;;
9310;SDS011;4694;52.464;13.480;2023-08-20T03:36:08;16.67;;;14.98;;
9310;SDS011;4694;52.464;13.480;2023-08-20T03:38:35;19.27;;;15.90;;
9310;SDS011;4694;52.464;13.480;2023-08-20T03:41:02;18.60;;;14.95;;
9310;SDS011;4694;52.464;13.480;2023-08-20T03:43:29;17.58;;;14.65;;
9310;SDS011;4694;52.464;13.480;2023-08-20T03:45:57;16.80;;;13.38;;
9310;SDS011;4694;52.464;13.480;2023-08-20T03:48:24;17.85;;;15.82;;
9310;SDS011;4694;52.464;13.480;2023-08-20T03:50:51;15.98;;;14.27;;
9310;SDS011;4694;52.464;13.480;2023-08-20T03:53:18;15.32;;;12.95;;
9310;SDS011;4694;52.464;13.480;2023-08-20T03:55:47;17.23;;;13.32;;
9310;SDS011;4694;52.464;13.480;2023-08-20T03:58:14;15.00;;;13.27;;
9310;SDS011;4694;52.464;13.480;2023-08-20T04:00:41;15.98;;;14.00;;
9310;SDS011;4694;52.464;13.480;2023-08-20T04:03:10;15.38;;;13.90;;
9310;SDS011;4694;52.464;13.480;2023-08-20T04:05:37;19.48;;;14.40;;
9310;SDS011;4694;52.464;13.480;2023-08-20T04:08:04;17.45;;;15.65;;
9310;SDS011;4694;52.464;13.480;2023-08-20T04:10:31;18.73;;;14.23;;
9310;SDS011;4694;52.464;13.480;2023-08-20T04:12:59;16.17;;;13.95;;
9310;SDS011;4694;52.464;13.480;2023-08-20T04:15:26;16.73;;;14.40;;
9310;SDS011;4694;52.464;13.480;2023-08-20T04:17:53;17.17;;;14.73;;
9310;SDS011;4694;52.464;13.480;2023-08-20T04:20:21;16.15;;;14.35;;
9310;SDS011;4694;52.464;13.480;2023-08-20T04:22:49;15.75;;;14.05;;
9310;SDS011;4694;52.464;13.480;2023-08-20T04:25:16;16.90;;;14.20;;
9310;SDS011;4694;52.464;13.480;2023-08-20T04:27:43;18.20;;;14.77;;
9310;SDS011;4694;52.464;13.480;2023-08-20T04:30:10;17.33;;;15.52;;
9310;SDS011;4694;52.464;13.480;2023-08-20T04:32:38;19.13;;;14.98;;
9310;SDS011;4694;52.464;13.480;2023-08-20T04:35:05;21.58;;;15.32;;
9310;SDS011;4694;52.464;13.480;2023-08-20T04:37:34;20.27;;;15.55;;
9310;SDS011;4694;52.464;13.480;2023-08-20T04:40:01;19.77;;;15.93;;
9310;SDS011;4694;52.464;13.480;2023-08-20T04:42:29;19.88;;;15.50;;
9310;SDS011;4694;52.464;13.480;2023-08-20T04:44:57;19.80;;;15.75;;
9310;SDS011;4694;52.464;13.480;2023-08-20T04:47:24;19.85;;;16.08;;
9310;SDS011;4694;52.464;13.480;2023-08-20T04:49:51;19.08;;;15.13;;
9310;SDS011;4694;52.464;13.480;2023-08-20T04:52:18;16.63;;;14.20;;
9310;SDS011;4694;52.464;13.480;2023-08-20T04:54:47;17.52;;;15.40;;
9310;SDS011;4694;52.464;13.480;2023-08-20T04:57:14;17.17;;;15.38;;
9310;SDS011;4694;52.464;13.480;2023-08-20T04:59:41;21.60;;;14.57;;
9310;SDS011;4694;52.464;13.480;2023-08-20T05:02:10;16.20;;;14.45;;
9310;SDS011;4694;52.464;13.480;2023-08-20T05:04:37;20.83;;;15.48;;
9310;SDS011;4694;52.464;13.480;2023-08-20T05:07:04;20.15;;;15.25;;
9310;SDS011;4694;52.464;13.480;2023-08-20T05:09:32;17.27;;;14.32;;
9310;SDS011;4694;52.464;13.480;2023-08-20T05:12:00;19.05;;;14.48;;
9310;SDS011;4694;52.464;13.480;2023-08-20T05:14:28;19.02;;;15.27;;
9310;SDS011;4694;52.464;13.480;2023-08-20T05:16:56;24.00;;;15.48;;
9310;SDS011;4694;52.464;13.480;2023-08-20T05:19:23;16.42;;;14.05;;
9310;SDS011;4694;52.464;13.480;2023-08-20T05:21:50;18.40;;;15.23;;
9310;SDS011;4694;52.464;13.480;2023-08-20T05:24:20;18.50;;;15.35;;
9310;SDS011;4694;52.464;13.480;2023-08-20T05:26:49;19.15;;;15.38;;
9310;SDS011;4694;52.464;13.480;2023-08-20T05:29:31;17.63;;;15.43;;
9310;SDS011;4694;52.464;13.480;2023-08-20T05:31:59;21.40;;;15.93;;
9310;SDS011;4694;52.464;13.480;2023-08-20T05:34:27;25.17;;;16.10;;
9310;SDS011;4694;52.464;13.480;2023-08-20T05:36:54;20.10;;;15.05;;
9310;SDS011;4694;52.464;13.480;2023-08-20T05:39:21;19.38;;;16.08;;
9310;SDS011;4694;52.464;13.480;2023-08-20T05:41:48;20.90;;;16.23;;
9310;SDS011;4694;52.464;13.480;2023-08-20T05:44:15;19.02;;;15.77;;
9310;SDS011;4694;52.464;13.480;2023-08-20T05:46:44;20.85;;;17.45;;
9310;SDS011;4694;52.464;13.480;2023-08-20T05:49:14;17.73;;;15.15;;
9310;SDS011;4694;52.464;13.480;2023-08-20T05:51:41;17.40;;;14.98;;
9310;SDS011;4694;52.464;13.480;2023-08-20T05:54:08;19.42;;;15.13;;
9310;SDS011;4694;52.464;13.480;2023-08-20T05:56:35;23.05;;;15.88;;
9310;SDS011;4694;52.464;13.480;2023-08-20T05:59:03;18.48;;;16.05;;
9310;SDS011;4694;52.464;13.480;2023-08-20T06:01:30;19.40;;;15.82;;
9310;SDS011;4694;52.464;13.480;2023-08-20T06:03:58;18.52;;;16.13;;
9310;SDS011;4694;52.464;13.480;2023-08-20T06:06:26;18.40;;;15.40;;
9310;SDS011;4694;52.464;13.480;2023-08-20T06:08:53;18.08;;;15.75;;
9310;SDS011;4694;52.464;13.480;2023-08-20T06:11:21;19.85;;;13.80;;
9310;SDS011;4694;52.464;13.480;2023-08-20T06:13:48;18.17;;;14.63;;
9310;SDS011;4694;52.464;13.480;2023-08-20T06:16:15;16.55;;;14.20;;
9310;SDS011;4694;52.464;13.480;2023-08-20T06:18:42;15.77;;;13.70;;
9310;SDS011;4694;52.464;13.480;2023-08-20T06:21:10;17.88;;;15.98;;
9310;SDS011;4694;52.464;13.480;2023-08-20T06:23:38;16.70;;;14.50;;
9310;SDS011;4694;52.464;13.480;2023-08-20T06:26:05;19.63;;;16.42;;
9310;SDS011;4694;52.464;13.480;2023-08-20T06:28:32;16.83;;;15.02;;
9310;SDS011;4694;52.464;13.480;2023-08-20T06:31:00;18.25;;;16.20;;
9310;SDS011;4694;52.464;13.480;2023-08-20T06:33:28;20.88;;;14.25;;
9310;SDS011;4694;52.464;13.480;2023-08-20T06:35:55;17.95;;;15.77;;
9310;SDS011;4694;52.464;13.480;2023-08-20T06:38:23;19.73;;;16.52;;
9310;SDS011;4694;52.464;13.480;2023-08-20T06:40:51;16.23;;;14.48;;
9310;SDS011;4694;52.464;13.480;2023-08-20T06:43:18;20.75;;;16.05;;
9310;SDS011;4694;52.464;13.480;2023-08-20T06:45:45;19.08;;;16.08;;
9310;SDS011;4694;52.464;13.480;2023-08-20T06:48:12;21.83;;;18.10;;
9310;SDS011;4694;52.464;13.480;2023-08-20T06:50:41;22.10;;;15.73;;
9310;SDS011;4694;52.464;13.480;2023-08-20T06:53:08;19.92;;;17.10;;
9310;SDS011;4694;52.464;13.480;2023-08-20T06:55:36;23.08;;;17.60;;
9310;SDS011;4694;52.464;13.480;2023-08-20T06:58:03;19.38;;;16.38;;
9310;SDS011;4694;52.464;13.480;2023-08-20T07:00:30;22.60;;;16.23;;
9310;SDS011;4694;52.464;13.480;2023-08-20T07:02:57;19.27;;;16.10;;
9310;SDS011;4694;52.464;13.480;2023-08-20T07:05:24;17.55;;;15.63;;
9310;SDS011;4694;52.464;13.480;2023-08-20T07:07:51;19.60;;;17.38;;
9310;SDS011;4694;52.464;13.480;2023-08-20T07:10:18;19.52;;;16.15;;
9310;SDS011;4694;52.464;13.480;2023-08-20T07:12:47;18.80;;;16.42;;
9310;SDS011;4694;52.464;13.480;2023-08-20T07:15:14;26.23;;;16.42;;
9310;SDS011;4694;52.464;13.480;2023-08-20T07:17:41;19.75;;;15.90;;
9310;SDS011;4694;52.464;13.480;2023-08-20T07:20:08;18.52;;;16.13;;
9310;SDS011;4694;52.464;13.480;2023-08-20T07:22:36;19.73;;;16.45;;
9310;SDS011;4694;52.464;13.480;2023-08-20T07:25:03;22.25;;;14.93;;
9310;SDS011;4694;52.464;13.480;2023-08-20T07:27:30;20.95;;;16.48;;
9310;SDS011;4694;52.464;13.480;2023-08-20T07:29:58;21.85;;;15.98;;
9310;SDS011;4694;52.464;13.480;2023-08-20T07:32:25;18.40;;;14.45;;
9310;SDS011;4694;52.464;13.480;2023-08-20T07:34:52;21.08;;;15.65;;
9310;SDS011;4694;52.464;13.480;2023-08-20T07:37:20;18.85;;;15.50;;
9310;SDS011;4694;52.464;13.480;2023-08-20T07:39:47;16.48;;;14.13;;
9310;SDS011;4694;52.464;13.480;2023-08-20T07:42:14;19.30;;;13.68;;
9310;SDS011;4694;52.464;13.480;2023-08-20T07:44:43;17.73;;;14.82;;
9310;SDS011;4694;52.464;13.480;2023-08-20T07:47:11;16.33;;;12.90;;
9310;SDS011;4694;52.464;13.480;2023-08-20T07:49:38;19.05;;;14.50;;
9310;SDS011;4694;52.464;13.480;2023-08-20T07:52:05;17.02;;;13.00;;
9310;SDS011;4694;52.464;13.480;2023-08-20T07:54:32;20.35;;;14.27;;
9310;SDS011;4694;52.464;13.480;2023-08-20T07:56:59;16.73;;;14.02;;
9310;SDS011;4694;52.464;13.480;2023-08-20T07:59:26;17.70;;;14.48;;
9310;SDS011;4694;52.464;13.480;2023-08-20T08:01:53;18.60;;;14.40;;
9310;SDS011;4694;52.464;13.480;2023-08-20T08:04:22;18.45;;;14.52;;
9310;SDS011;4694;52.464;13.480;2023-08-20T08:06:49;18.38;;;14.70;;
9310;SDS011;4694;52.464;13.480;2023-08-20T08:09:19;20.60;;;15.18;;
9310;SDS011;4694;52.464;13.480;2023-08-20T08:11:47;16.33;;;14.63;;
9310;SDS011;4694;52.464;13.480;2023-08-20T08:14:14;16.60;;;13.40;;
9310;SDS011;4694;52.464;13.480;2023-08-20T08:16:41;16.45;;;14.25;;
9310;SDS011;4694;52.464;13.480;2023-08-20T08:19:08;15.75;;;13.75;;
9310;SDS011;4694;52.464;13.480;2023-08-20T08:21:37;16.63;;;13.60;;
9310;SDS011;4694;52.464;13.480;2023-08-20T08:24:04;14.68;;;13.10;;
9310;SDS011;4694;52.464;13.480;2023-08-20T08:26:34;14.48;;;12.23;;
9310;SDS011;4694;52.464;13.480;2023-08-20T08:29:02;18.38;;;14.02;;
9310;SDS011;4694;52.464;13.480;2023-08-20T08:31:30;18.50;;;14.20;;
9310;SDS011;4694;52.464;13.480;2023-08-20T08:33:58;15.85;;;14.00;;
9310;SDS011;4694;52.464;13.480;2023-08-20T08:36:28;14.70;;;13.13;;
9310;SDS011;4694;52.464;13.480;2023-08-20T08:38:58;15.10;;;12.77;;
9310;SDS011;4694;52.464;13.480;2023-08-20T08:41:26;15.23;;;13.73;;
9310;SDS011;4694;52.464;13.480;2023-08-20T08:43:55;17.63;;;13.73;;
9310;SDS011;4694;52.464;13.480;2023-08-20T08:46:26;13.50;;;11.07;;
9310;SDS011;4694;52.464;13.480;2023-08-20T08:48:53;15.82;;;12.68;;
9310;SDS011;4694;52.464;13.480;2023-08-20T08:51:22;13.52;;;11.00;;
9310;SDS011;4694;52.464;13.480;2023-08-20T08:53:53;13.25;;;11.13;;
9310;SDS011;4694;52.464;13.480;2023-08-20T08:56:24;13.85;;;11.02;;
9310;SDS011;4694;52.464;13.480;2023-08-20T08:58:53;12.98;;;11.50;;
9310;SDS011;4694;52.464;13.480;2023-08-20T09:01:23;11.80;;;10.25;;
9310;SDS011;4694;52.464;13.480;2023-08-20T09:03:52;14.48;;;10.50;;
9310;SDS011;4694;52.464;13.480;2023-08-20T09:06:19;11.82;;;10.32;;
9310;SDS011;4694;52.464;13.480;2023-08-20T09:08:55;10.90;;;9.43;;
9310;SDS011;4694;52.464;13.480;2023-08-20T09:11:35;11.23;;;10.05;;
9310;SDS011;4694;52.464;13.480;2023-08-20T09:14:07;10.75;;;9.75;;
9310;SDS011;4694;52.464;13.480;2023-08-20T09:16:41;10.18;;;9.18;;
9310;SDS011;4694;52.464;13.480;2023-08-20T09:19:10;10.75;;;9.43;;
9310;SDS011;4694;52.464;13.480;2023-08-20T09:21:37;9.23;;;8.32;;
9310;SDS011;4694;52.464;13.480;2023-08-20T09:24:07;9.40;;;8.55;;
9310;SDS011;4694;52.464;13.480;2023-08-20T09:26:37;9.30;;;8.25;;
9310;SDS011;4694;52.464;13.480;2023-08-20T09:29:09;10.00;;;8.70;;
9310;SDS011;4694;52.464;13.480;2023-08-20T09:31:37;8.68;;;7.93;;
9310;SDS011;4694;52.464;13.480;2023-08-20T09:34:11;13.85;;;9.80;;
9310;SDS011;4694;52.464;13.480;2023-08-20T09:36:42;9.52;;;8.63;;
9310;SDS011;4694;52.464;13.480;2023-08-20T09:39:12;10.00;;;9.00;;
9310;SDS011;4694;52.464;13.480;2023-08-20T09:41:42;8.85;;;7.80;;
9310;SDS011;4694;52.464;13.480;2023-08-20T09:44:20;8.73;;;7.75;;
9310;SDS011;4694;52.464;13.480;2023-08-20T09:46:48;8.00;;;7.30;;
9310;SDS011;4694;52.464;13.480;2023-08-20T09:49:28;7.90;;;7.05;;
9310;SDS011;4694;52.464;13.480;2023-08-20T09:51:59;9.75;;;7.50;;
9310;SDS011;4694;52.464;13.480;2023-08-20T09:54:39;9.15;;;7.40;;
9310;SDS011;4694;52.464;13.480;2023-08-20T09:57:14;8.20;;;7.40;;
9310;SDS011;4694;52.464;13.480;2023-08-20T09:59:49;8.40;;;7.15;;
9310;SDS011;4694;52.464;13.480;2023-08-20T10:02:18;9.77;;;7.28;;
9310;SDS011;4694;52.464;13.480;2023-08-20T10:04:47;7.07;;;6.43;;
9310;SDS011;4694;52.464;13.480;2023-08-20T10:07:14;7.18;;;6.55;;
9310;SDS011;4694;52.464;13.480;2023-08-20T10:09:41;7.47;;;6.78;;
9310;SDS011;4694;52.464;13.480;2023-08-20T10:12:11;7.03;;;6.32;;
9310;SDS011;4694;52.464;13.480;2023-08-20T10:14:39;6.20;;;5.60;;
9310;SDS011;4694;52.464;13.480;2023-08-20T10:17:07;6.20;;;5.70;;
9310;SDS011;4694;52.464;13.480;2023-08-20T10:19:34;5.18;;;4.65;;
9310;SDS011;4694;52.464;13.480;2023-08-20T10:22:02;4.70;;;4.30;;
9310;SDS011;4694;52.464;13.480;2023-08-20T10:24:38;5.35;;;4.85;;
9310;SDS011;4694;52.464;13.480;2023-08-20T10:27:09;4.65;;;4.25;;
9310;SDS011;4694;52.464;13.480;2023-08-20T10:29:37;3.75;;;3.45;;
9310;SDS011;4694;52.464;13.480;2023-08-20T10:32:08;3.75;;;3.50;;
9310;SDS011;4694;52.464;13.480;2023-08-20T10:34:37;4.70;;;3.97;;
9310;SDS011;4694;52.464;13.480;2023-08-20T10:37:08;3.70;;;3.17;;
9310;SDS011;4694;52.464;13.480;2023-08-20T10:39:35;3.17;;;2.85;;
9310;SDS011;4694;52.464;13.480;2023-08-20T10:42:09;3.63;;;3.20;;
9310;SDS011;4694;52.464;13.480;2023-08-20T10:47:26;2.80;;;2.60;;
9310;SDS011;4694;52.464;13.480;2023-08-20T10:49:53;4.90;;;3.35;;
9310;SDS011;4694;52.464;13.480;2023-08-20T10:52:22;21.10;;;3.38;;
9310;SDS011;4694;52.464;13.480;2023-08-20T10:54:50;2.70;;;2.50;;
9310;SDS011;4694;52.464;13.480;2023-08-20T10:57:17;3.22;;;2.92;;
9310;SDS011;4694;52.464;13.480;2023-08-20T10:59:55;3.30;;;3.00;;
9310;SDS011;4694;52.464;13.480;2023-08-20T11:02:23;3.63;;;3.25;;
9310;SDS011;4694;52.464;13.480;2023-08-20T11:04:54;3.00;;;2.80;;
9310;SDS011;4694;52.464;13.480;2023-08-20T11:07:21;2.97;;;2.75;;
9310;SDS011;4694;52.464;13.480;2023-08-20T11:09:48;3.00;;;2.80;;
9310;SDS011;4694;52.464;13.480;2023-08-20T11:14:45;3.45;;;2.63;;
9310;SDS011;4694;52.464;13.480;2023-08-20T11:17:13;3.25;;;2.95;;
9310;SDS011;4694;52.464;13.480;2023-08-20T11:19:40;3.30;;;3.10;;
9310;SDS011;4694;52.464;13.480;2023-08-20T11:22:09;3.72;;;3.42;;
9310;SDS011;4694;52.464;13.480;2023-08-20T11:24:38;3.83;;;2.97;;
9310;SDS011;4694;52.464;13.480;2023-08-20T11:27:05;5.28;;;2.90;;
9310;SDS011;4694;52.464;13.480;2023-08-20T11:29:32;2.92;;;2.63;;
9310;SDS011;4694;52.464;13.480;2023-08-20T11:31:59;2.65;;;2.45;;
9310;SDS011;4694;52.464;13.480;2023-08-20T11:34:28;3.15;;;2.83;;
9310;SDS011;4694;52.464;13.480;2023-08-20T11:36:56;2.55;;;2.35;;
9310;SDS011;4694;52.464;13.480;2023-08-20T11:39:24;2.58;;;2.35;;
9310;SDS011;4694;52.464;13.480;2023-08-20T11:41:54;2.80;;;2.60;;
9310;SDS011;4694;52.464;13.480;2023-08-20T11:44:21;2.75;;;2.55;;
9310;SDS011;4694;52.464;13.480;2023-08-20T11:46:51;3.00;;;2.60;;
9310;SDS011;4694;52.464;13.480;2023-08-20T11:49:26;3.30;;;2.60;;
9310;SDS011;4694;52.464;13.480;2023-08-20T11:51:55;2.72;;;2.17;;
9310;SDS011;4694;52.464;13.480;2023-08-20T11:54:25;2.47;;;2.35;;
9310;SDS011;4694;52.464;13.480;2023-08-20T11:56:52;3.10;;;2.80;;
9310;SDS011;4694;52.464;13.480;2023-08-20T11:59:28;2.40;;;2.20;;
9310;SDS011;4694;52.464;13.480;2023-08-20T12:01:56;2.25;;;1.85;;
9310;SDS011;4694;52.464;13.480;2023-08-20T12:04:25;2.20;;;2.10;;
9310;SDS011;4694;52.464;13.480;2023-08-20T12:07:01;1.60;;;1.50;;
9310;SDS011;4694;52.464;13.480;2023-08-20T12:09:30;1.80;;;1.70;;
9310;SDS011;4694;52.464;13.480;2023-08-20T12:11:57;2.35;;;1.75;;
9310;SDS011;4694;52.464;13.480;2023-08-20T12:14:26;2.45;;;2.00;;
9310;SDS011;4694;52.464;13.480;2023-08-20T12:16:53;2.38;;;1.75;;
9310;SDS011;4694;52.464;13.480;2023-08-20T12:19:20;1.75;;;1.63;;
9310;SDS011;4694;52.464;13.480;2023-08-20T12:21:48;3.55;;;1.88;;
9310;SDS011;4694;52.464;13.480;2023-08-20T12:24:15;4.40;;;1.85;;
9310;SDS011;4694;52.464;13.480;2023-08-20T12:26:45;2.92;;;1.75;;
9310;SDS011;4694;52.464;13.480;2023-08-20T12:29:12;2.97;;;1.85;;
9310;SDS011;4694;52.464;13.480;2023-08-20T12:31:39;1.52;;;1.42;;
9310;SDS011;4694;52.464;13.480;2023-08-20T12:34:07;2.30;;;1.90;;
9310;SDS011;4694;52.464;13.480;2023-08-20T12:36:34;1.95;;;1.67;;
9310;SDS011;4694;52.464;13.480;2023-08-20T12:39:02;1.90;;;1.80;;
9310;SDS011;4694;52.464;13.480;2023-08-20T12:41:29;4.18;;;1.70;;
9310;SDS011;4694;52.464;13.480;2023-08-20T12:43:58;1.98;;;1.75;;
9310;SDS011;4694;52.464;13.480;2023-08-20T12:46:25;2.15;;;1.85;;
9310;SDS011;4694;52.464;13.480;2023-08-20T12:48:52;2.10;;;2.00;;
9310;SDS011;4694;52.464;13.480;2023-08-20T12:51:19;1.65;;;1.55;;
9310;SDS011;4694;52.464;13.480;2023-08-20T12:53:47;2.15;;;1.65;;
9310;SDS011;4694;52.464;13.480;2023-08-20T12:56:14;2.47;;;1.75;;
9310;SDS011;4694;52.464;13.480;2023-08-20T12:58:41;2.55;;;1.63;;
9310;SDS011;4694;52.464;13.480;2023-08-20T13:01:10;2.78;;;1.90;;
9310;SDS011;4694;52.464;13.480;2023-08-20T13:03:37;2.13;;;1.88;;
9310;SDS011;4694;52.464;13.480;2023-08-20T13:06:05;2.05;;;1.73;;
9310;SDS011;4694;52.464;13.480;2023-08-20T13:08:32;2.22;;;2.03;;
9310;SDS011;4694;52.464;13.480;2023-08-20T13:11:00;1.80;;;1.70;;
9310;SDS011;4694;52.464;13.480;2023-08-20T13:13:28;2.17;;;1.70;;
9310;SDS011;4694;52.464;13.480;2023-08-20T13:15:59;2.05;;;1.70;;
9310;SDS011;4694;52.464;13.480;2023-08-20T13:18:29;3.55;;;1.10;;
9310;SDS011;4694;52.464;13.480;2023-08-20T13:20:56;4.13;;;1.52;;
9310;SDS011;4694;52.464;13.480;2023-08-20T13:23:23;4.38;;;1.77;;
9310;SDS011;4694;52.464;13.480;2023-08-20T13:25:50;2.92;;;1.30;;
9310;SDS011;4694;52.464;13.480;2023-08-20T13:28:17;1.33;;;1.20;;
9310;SDS011;4694;52.464;13.480;2023-08-20T13:30:44;3.13;;;1.30;;
9310;SDS011;4694;52.464;13.480;2023-08-20T13:33:11;3.45;;;1.58;;
9310;SDS011;4694;52.464;13.480;2023-08-20T13:35:40;4.32;;;1.40;;
9310;SDS011;4694;52.464;13.480;2023-08-20T13:38:07;1.95;;;1.13;;
9310;SDS011;4694;52.464;13.480;2023-08-20T13:40:35;2.15;;;1.20;;
9310;SDS011;4694;52.464;13.480;2023-08-20T13:43:02;4.57;;;1.42;;
9310;SDS011;4694;52.464;13.480;2023-08-20T13:45:29;0.98;;;0.80;;
9310;SDS011;4694;52.464;13.480;2023-08-20T13:47:56;1.30;;;1.20;;
9310;SDS011;4694;52.464;13.480;2023-08-20T13:50:24;1.83;;;1.00;;
9310;SDS011;4694;52.464;13.480;2023-08-20T13:52:53;0.93;;;0.93;;
9310;SDS011;4694;52.464;13.480;2023-08-20T13:55:20;1.27;;;1.23;;
9310;SDS011;4694;52.464;13.480;2023-08-20T13:57:47;1.60;;;0.80;;
9310;SDS011;4694;52.464;13.480;2023-08-20T14:00:14;2.13;;;1.10;;
9310;SDS011;4694;52.464;13.480;2023-08-20T14:02:41;1.95;;;1.10;;
9310;SDS011;4694;52.464;13.480;2023-08-20T14:05:08;1.85;;;1.10;;
9310;SDS011;4694;52.464;13.480;2023-08-20T14:07:36;1.40;;;1.00;;
9310;SDS011;4694;52.464;13.480;2023-08-20T14:10:05;1.13;;;0.98;;
9310;SDS011;4694;52.464;13.480;2023-08-20T14:12:33;0.98;;;0.60;;
9310;SDS011;4694;52.464;13.480;2023-08-20T14:15:01;1.75;;;1.20;;
9310;SDS011;4694;52.464;13.480;2023-08-20T14:17:28;3.65;;;1.23;;
9310;SDS011;4694;52.464;13.480;2023-08-20T14:20:01;1.70;;;1.60;;
9310;SDS011;4694;52.464;13.480;2023-08-20T14:22:37;2.75;;;2.15;;
9310;SDS011;4694;52.464;13.480;2023-08-20T14:25:06;1.88;;;1.38;;
9310;SDS011;4694;52.464;13.480;2023-08-20T14:27:34;2.05;;;1.80;;
9310;SDS011;4694;52.464;13.480;2023-08-20T14:30:02;3.45;;;1.45;;
9310;SDS011;4694;52.464;13.480;2023-08-20T14:32:29;2.80;;;1.80;;
9310;SDS011;4694;52.464;13.480;2023-08-20T14:34:56;4.93;;;1.55;;
9310;SDS011;4694;52.464;13.480;2023-08-20T14:37:24;1.58;;;1.48;;
9310;SDS011;4694;52.464;13.480;2023-08-20T14:39:51;2.50;;;1.27;;
9310;SDS011;4694;52.464;13.480;2023-08-20T14:42:19;1.67;;;1.58;;
9310;SDS011;4694;52.464;13.480;2023-08-20T14:44:48;1.50;;;1.00;;
9310;SDS011;4694;52.464;13.480;2023-08-20T14:47:15;1.88;;;1.30;;
9310;SDS011;4694;52.464;13.480;2023-08-20T14:49:42;1.17;;;0.90;;
9310;SDS011;4694;52.464;13.480;2023-08-20T14:52:09;1.60;;;1.20;;
9310;SDS011;4694;52.464;13.480;2023-08-20T14:54:36;5.00;;;1.42;;